createdAt,value
2017-07-10T00:00:50.754Z,1006.57
2017-07-10T00:02:01.015Z,1006.54
2017-07-10T00:03:11.297Z,1006.53
2017-07-10T00:04:21.256Z,1006.53
2017-07-10T00:05:31.204Z,1006.56
2017-07-10T00:06:41.135Z,1006.52
2017-07-10T00:07:51.408Z,1006.47
2017-07-10T00:09:01.046Z,1006.47
2017-07-10T00:10:11.336Z,1006.48
2017-07-10T00:11:21.308Z,1006.45
2017-07-10T00:12:31.517Z,1006.44
2017-07-10T00:13:41.458Z,1006.43
2017-07-10T00:14:51.411Z,1006.48
2017-07-10T00:16:01.693Z,1006.45
2017-07-10T00:17:11.650Z,1006.42
2017-07-10T00:18:21.846Z,1006.42
2017-07-10T00:19:32.120Z,1006.44
2017-07-10T00:20:42.461Z,1006.41
2017-07-10T00:21:52.127Z,1006.37
2017-07-10T00:23:02.383Z,1006.37
2017-07-10T00:24:12.900Z,1006.31
2017-07-10T00:25:23.170Z,1006.3
2017-07-10T00:26:33.466Z,1006.35
2017-07-10T00:27:43.737Z,1006.33
2017-07-10T00:28:54.012Z,1006.29
2017-07-10T00:30:04.203Z,1006.28
2017-07-10T00:31:14.157Z,1006.26
2017-07-10T00:32:24.460Z,1006.28
2017-07-10T00:33:34.745Z,1006.29
2017-07-10T00:34:45.005Z,1006.3
2017-07-10T00:35:55.268Z,1006.3
2017-07-10T00:37:05.539Z,1006.25
2017-07-10T00:38:15.489Z,1006.29
2017-07-10T00:39:25.766Z,1006.24
2017-07-10T00:40:35.405Z,1006.22
2017-07-10T00:41:45.615Z,1006.19
2017-07-10T00:42:55.554Z,1006.13
2017-07-10T00:44:05.837Z,1006.11
2017-07-10T00:45:15.790Z,1006.1
2017-07-10T00:46:26.087Z,1006.08
2017-07-10T00:47:36.598Z,1006.08
2017-07-10T00:48:46.239Z,1006.1
2017-07-10T00:49:56.520Z,1006.08
2017-07-10T00:51:06.787Z,1006.06
2017-07-10T00:52:16.741Z,1006.1
2017-07-10T00:53:26.950Z,1006.11
2017-07-10T00:54:37.226Z,1006.12
2017-07-10T00:55:47.180Z,1006.07
2017-07-10T00:56:57.143Z,1006.09
2017-07-10T00:58:06.787Z,1006.08
2017-07-10T00:59:17.309Z,1006.06
2017-07-10T01:00:27.271Z,1006.03
2017-07-10T01:01:36.893Z,1006.04
2017-07-10T01:02:47.165Z,1006.06
2017-07-10T01:03:57.143Z,1006.06
2017-07-10T01:05:07.656Z,1006.03
2017-07-10T01:06:17.296Z,1005.97
2017-07-10T01:07:27.558Z,1005.92
2017-07-10T01:08:37.820Z,1005.9
2017-07-10T01:09:48.081Z,1005.9
2017-07-10T01:10:58.666Z,1005.88
2017-07-10T01:12:08.935Z,1005.89
2017-07-10T01:13:18.892Z,1005.89
2017-07-10T01:14:29.158Z,1005.91
2017-07-10T01:15:39.440Z,1005.89
2017-07-10T01:16:49.648Z,1005.86
2017-07-10T01:17:59.298Z,1005.81
2017-07-10T01:19:09.559Z,1005.83
2017-07-10T01:20:19.833Z,1005.85
2017-07-10T01:21:30.109Z,1005.82
2017-07-10T01:22:40.632Z,1005.85
2017-07-10T01:23:50.891Z,1005.86
2017-07-10T01:25:00.830Z,1005.85
2017-07-10T01:26:10.781Z,1005.87
2017-07-10T01:27:21.032Z,1005.82
2017-07-10T01:28:31.237Z,1005.79
2017-07-10T01:29:41.509Z,1005.83
2017-07-10T01:30:51.456Z,1005.82
2017-07-10T01:32:01.414Z,1005.82
2017-07-10T01:33:11.671Z,1005.81
2017-07-10T01:34:21.888Z,1005.77
2017-07-10T01:35:32.161Z,1005.75
2017-07-10T01:36:42.435Z,1005.74
2017-07-10T01:37:52.072Z,1005.74
2017-07-10T01:39:02.047Z,1005.7
2017-07-10T01:40:12.251Z,1005.64
2017-07-10T01:41:22.516Z,1005.6
2017-07-10T01:42:32.829Z,1005.56
2017-07-10T01:43:43.119Z,1005.51
2017-07-10T01:44:53.374Z,1005.52
2017-07-10T01:46:03.591Z,1005.45
2017-07-10T01:47:13.871Z,1005.47
2017-07-10T01:48:24.146Z,1005.45
2017-07-10T01:49:34.403Z,1005.4
2017-07-10T01:50:44.344Z,1005.38
2017-07-10T01:51:54.531Z,1005.34
2017-07-10T01:53:04.817Z,1005.35
2017-07-10T01:54:14.757Z,1005.32
2017-07-10T01:55:25.026Z,1005.34
2017-07-10T01:56:35.294Z,1005.3
2017-07-10T01:57:45.180Z,1005.3
2017-07-10T01:58:54.829Z,1005.31
2017-07-10T02:00:05.089Z,1005.28
2017-07-10T02:01:15.100Z,1005.27
2017-07-10T02:02:25.069Z,1005.29
2017-07-10T02:03:35.275Z,1005.26
2017-07-10T02:04:45.549Z,1005.28
2017-07-10T02:05:55.510Z,1005.27
2017-07-10T02:07:05.154Z,1005.34
2017-07-10T02:08:15.421Z,1005.28
2017-07-10T02:09:24.988Z,1005.29
2017-07-10T02:10:35.257Z,1005.3
2017-07-10T02:11:44.909Z,1005.31
2017-07-10T02:12:54.870Z,1005.28
2017-07-10T02:14:05.145Z,1005.24
2017-07-10T02:15:15.027Z,1005.27
2017-07-10T02:16:25.291Z,1005.28
2017-07-10T02:17:35.561Z,1005.32
2017-07-10T02:18:45.520Z,1005.3
2017-07-10T02:19:55.786Z,1005.28
2017-07-10T02:21:06.352Z,1005.25
2017-07-10T02:22:16.634Z,1005.22
2017-07-10T02:23:26.903Z,1005.21
2017-07-10T02:24:37.160Z,1005.18
2017-07-10T02:25:47.118Z,1005.19
2017-07-10T02:26:57.327Z,1005.22
2017-07-10T02:28:07.584Z,1005.21
2017-07-10T02:29:17.216Z,1005.25
2017-07-10T02:30:26.858Z,1005.27
2017-07-10T02:31:37.130Z,1005.23
2017-07-10T02:32:47.656Z,1005.23
2017-07-10T02:33:57.611Z,1005.27
2017-07-10T02:35:07.862Z,1005.21
2017-07-10T02:36:17.175Z,1005.2
2017-07-10T02:37:27.121Z,1005.22
2017-07-10T02:38:37.676Z,1005.2
2017-07-10T02:39:47.310Z,1005.21
2017-07-10T02:40:56.639Z,1005.2
2017-07-10T02:42:06.267Z,1005.26
2017-07-10T02:43:16.713Z,1005.29
2017-07-10T02:44:26.911Z,1005.27
2017-07-10T02:45:36.937Z,1005.22
2017-07-10T02:46:46.889Z,1005.23
2017-07-10T02:47:56.839Z,1005.16
2017-07-10T02:49:07.112Z,1005.16
2017-07-10T02:50:17.300Z,1005.15
2017-07-10T02:51:27.180Z,1005.22
2017-07-10T02:52:37.130Z,1005.19
2017-07-10T02:53:47.396Z,1005.19
2017-07-10T02:54:57.357Z,1005.17
2017-07-10T02:56:07.887Z,1005.14
2017-07-10T02:57:17.521Z,1005.15
2017-07-10T02:58:27.458Z,1005.1
2017-07-10T02:59:37.095Z,1005.11
2017-07-10T03:00:47.356Z,1005.13
2017-07-10T03:01:57.561Z,1005.11
2017-07-10T03:03:07.820Z,1005.13
2017-07-10T03:04:17.772Z,1005.13
2017-07-10T03:05:27.728Z,1005.11
2017-07-10T03:06:37.693Z,1005.13
2017-07-10T03:07:47.959Z,1005.1
2017-07-10T03:08:57.599Z,1005.03
2017-07-10T03:10:07.215Z,1005.02
2017-07-10T03:11:17.174Z,1005.03
2017-07-10T03:12:27.432Z,1005.03
2017-07-10T03:13:37.946Z,1005.02
2017-07-10T03:14:47.905Z,1004.98
2017-07-10T03:15:58.170Z,1004.99
2017-07-10T03:17:07.817Z,1004.99
2017-07-10T03:18:18.090Z,1004.96
2017-07-10T03:19:27.661Z,1004.99
2017-07-10T03:20:37.620Z,1004.94
2017-07-10T03:21:47.576Z,1005
2017-07-10T03:22:57.845Z,1005.03
2017-07-10T03:24:08.108Z,1005.01
2017-07-10T03:25:18.307Z,1005.02
2017-07-10T03:26:28.592Z,1005
2017-07-10T03:27:38.852Z,1004.97
2017-07-10T03:28:49.127Z,1004.95
2017-07-10T03:29:59.404Z,1004.94
2017-07-10T03:31:09.915Z,1004.92
2017-07-10T03:32:20.179Z,1004.93
2017-07-10T03:33:30.120Z,1004.89
2017-07-10T03:34:40.067Z,1004.89
2017-07-10T03:35:50.335Z,1004.9
2017-07-10T03:36:59.907Z,1004.87
2017-07-10T03:38:09.530Z,1004.86
2017-07-10T03:39:19.484Z,1004.88
2017-07-10T03:40:29.505Z,1004.9
2017-07-10T03:41:39.464Z,1004.88
2017-07-10T03:42:49.989Z,1004.86
2017-07-10T03:44:00.253Z,1004.85
2017-07-10T03:45:09.875Z,1004.83
2017-07-10T03:46:19.188Z,1004.86
2017-07-10T03:47:29.132Z,1004.84
2017-07-10T03:48:39.010Z,1004.84
2017-07-10T03:49:49.276Z,1004.88
2017-07-10T03:50:59.229Z,1004.87
2017-07-10T03:52:09.175Z,1004.84
2017-07-10T03:53:19.455Z,1004.85
2017-07-10T03:54:29.711Z,1004.85
2017-07-10T03:55:39.039Z,1004.8
2017-07-10T03:56:49.000Z,1004.81
2017-07-10T03:57:59.280Z,1004.81
2017-07-10T03:59:09.240Z,1004.85
2017-07-10T04:00:19.506Z,1004.85
2017-07-10T04:01:29.457Z,1004.85
2017-07-10T04:02:39.410Z,1004.84
2017-07-10T04:03:49.378Z,1004.83
2017-07-10T04:04:59.320Z,1004.78
2017-07-10T04:06:09.216Z,1004.79
2017-07-10T04:07:19.479Z,1004.75
2017-07-10T04:08:29.734Z,1004.78
2017-07-10T04:09:39.668Z,1004.75
2017-07-10T04:10:49.622Z,1004.73
2017-07-10T04:11:59.518Z,1004.68
2017-07-10T04:13:09.164Z,1004.63
2017-07-10T04:14:19.419Z,1004.65
2017-07-10T04:15:29.693Z,1004.62
2017-07-10T04:16:39.649Z,1004.63
2017-07-10T04:17:49.903Z,1004.61
2017-07-10T04:19:00.192Z,1004.64
2017-07-10T04:20:10.460Z,1004.6
2017-07-10T04:21:20.726Z,1004.57
2017-07-10T04:22:30.990Z,1004.52
2017-07-10T04:23:41.554Z,1004.52
2017-07-10T04:24:50.888Z,1004.55
2017-07-10T04:26:01.386Z,1004.51
2017-07-10T04:27:11.336Z,1004.52
2017-07-10T04:28:21.291Z,1004.51
2017-07-10T04:29:31.497Z,1004.55
2017-07-10T04:30:41.772Z,1004.52
2017-07-10T04:31:52.056Z,1004.48
2017-07-10T04:33:02.342Z,1004.4
2017-07-10T04:34:12.626Z,1004.33
2017-07-10T04:35:23.153Z,1004.32
2017-07-10T04:36:33.111Z,1004.28
2017-07-10T04:37:43.047Z,1004.27
2017-07-10T04:38:52.995Z,1004.28
2017-07-10T04:40:03.259Z,1004.28
2017-07-10T04:41:13.809Z,1004.26
2017-07-10T04:42:23.777Z,1004.28
2017-07-10T04:43:34.042Z,1004.29
2017-07-10T04:44:44.326Z,1004.3
2017-07-10T04:45:54.585Z,1004.25
2017-07-10T04:47:04.851Z,1004.26
2017-07-10T04:48:14.830Z,1004.25
2017-07-10T04:49:24.789Z,1004.22
2017-07-10T04:50:35.072Z,1004.18
2017-07-10T04:51:45.339Z,1004.2
2017-07-10T04:52:54.917Z,1004.18
2017-07-10T04:54:05.178Z,1004.17
2017-07-10T04:55:15.142Z,1004.17
2017-07-10T04:56:25.416Z,1004.15
2017-07-10T04:57:35.051Z,1004.15
2017-07-10T04:58:45.242Z,1004.18
2017-07-10T04:59:55.524Z,1004.12
2017-07-10T05:01:05.486Z,1004.08
2017-07-10T05:02:15.120Z,1004.12
2017-07-10T05:03:25.074Z,1004.07
2017-07-10T05:04:35.593Z,1004.04
2017-07-10T05:05:45.221Z,1004.06
2017-07-10T05:06:54.890Z,1004.01
2017-07-10T05:08:04.841Z,1004.03
2017-07-10T05:09:14.796Z,1004.04
2017-07-10T05:10:24.691Z,1004.03
2017-07-10T05:11:34.972Z,1004.02
2017-07-10T05:12:44.295Z,1004.05
2017-07-10T05:13:54.244Z,1004.06
2017-07-10T05:15:04.196Z,1004.07
2017-07-10T05:16:14.448Z,1004.02
2017-07-10T05:17:24.416Z,1004.03
2017-07-10T05:18:34.366Z,1004.03
2017-07-10T05:19:44.337Z,1004
2017-07-10T05:20:54.289Z,1003.98
2017-07-10T05:22:04.495Z,1003.97
2017-07-10T05:23:14.440Z,1003.93
2017-07-10T05:24:24.707Z,1003.93
2017-07-10T05:25:34.661Z,1003.91
2017-07-10T05:26:44.623Z,1003.88
2017-07-10T05:27:54.826Z,1003.91
2017-07-10T05:29:04.790Z,1003.86
2017-07-10T05:30:15.068Z,1003.85
2017-07-10T05:31:25.035Z,1003.84
2017-07-10T05:32:35.329Z,1003.79
2017-07-10T05:33:45.573Z,1003.81
2017-07-10T05:34:55.836Z,1003.8
2017-07-10T05:36:05.482Z,1003.83
2017-07-10T05:37:15.449Z,1003.88
2017-07-10T05:38:25.734Z,1003.89
2017-07-10T05:39:35.636Z,1003.92
2017-07-10T05:40:45.586Z,1003.89
2017-07-10T05:41:55.855Z,1003.85
2017-07-10T05:43:05.795Z,1003.83
2017-07-10T05:44:15.729Z,1003.77
2017-07-10T05:45:26.256Z,1003.75
2017-07-10T05:46:36.543Z,1003.73
2017-07-10T05:47:46.804Z,1003.73
2017-07-10T05:48:57.087Z,1003.75
2017-07-10T05:50:07.373Z,1003.74
2017-07-10T05:51:17.314Z,1003.68
2017-07-10T05:52:27.592Z,1003.62
2017-07-10T05:53:37.874Z,1003.58
2017-07-10T05:54:48.145Z,1003.52
2017-07-10T05:55:58.416Z,1003.53
2017-07-10T05:57:08.955Z,1003.51
2017-07-10T05:58:18.935Z,1003.54
2017-07-10T05:59:29.208Z,1003.54
2017-07-10T06:00:39.498Z,1003.58
2017-07-10T06:01:49.478Z,1003.62
2017-07-10T06:02:59.680Z,1003.6
2017-07-10T06:04:09.937Z,1003.58
2017-07-10T06:05:20.213Z,1003.54
2017-07-10T06:06:29.531Z,1003.56
2017-07-10T06:07:39.497Z,1003.54
2017-07-10T06:08:50.062Z,1003.56
2017-07-10T06:10:00.351Z,1003.58
2017-07-10T06:11:09.994Z,1003.59
2017-07-10T06:12:20.261Z,1003.55
2017-07-10T06:13:30.252Z,1003.62
2017-07-10T06:14:40.797Z,1003.61
2017-07-10T06:15:51.090Z,1003.64
2017-07-10T06:17:01.363Z,1003.61
2017-07-10T06:18:11.635Z,1003.6
2017-07-10T06:19:21.920Z,1003.53
2017-07-10T06:20:32.201Z,1003.5
2017-07-10T06:21:42.506Z,1003.46
2017-07-10T06:22:52.785Z,1003.46
2017-07-10T06:24:03.059Z,1003.44
2017-07-10T06:25:13.351Z,1003.45
2017-07-10T06:26:23.886Z,1003.48
2017-07-10T06:27:34.238Z,1003.48
2017-07-10T06:28:44.544Z,1003.51
2017-07-10T06:29:54.833Z,1003.51
2017-07-10T06:31:05.111Z,1003.48
2017-07-10T06:32:15.701Z,1003.54
2017-07-10T06:33:25.980Z,1003.53
2017-07-10T06:34:35.316Z,1003.59
2017-07-10T06:35:45.281Z,1003.65
2017-07-10T06:36:55.561Z,1003.64
2017-07-10T06:38:05.767Z,1003.69
2017-07-10T06:39:15.729Z,1003.71
2017-07-10T06:40:25.712Z,1003.69
2017-07-10T06:41:35.992Z,1003.74
2017-07-10T06:42:45.975Z,1003.67
2017-07-10T06:43:56.506Z,1003.61
2017-07-10T06:45:06.793Z,1003.63
2017-07-10T06:46:17.055Z,1003.65
2017-07-10T06:47:27.338Z,1003.61
2017-07-10T06:48:37.615Z,1003.65
2017-07-10T06:49:47.841Z,1003.59
2017-07-10T06:50:58.108Z,1003.53
2017-07-10T06:52:08.068Z,1003.48
2017-07-10T06:53:18.367Z,1003.48
2017-07-10T06:54:28.344Z,1003.48
2017-07-10T06:55:38.616Z,1003.48
2017-07-10T06:56:48.900Z,1003.47
2017-07-10T06:57:59.192Z,1003.43
2017-07-10T06:59:09.478Z,1003.43
2017-07-10T07:00:19.744Z,1003.4
2017-07-10T07:01:30.265Z,1003.38
2017-07-10T07:02:40.569Z,1003.33
2017-07-10T07:03:50.902Z,1003.27
2017-07-10T07:05:01.177Z,1003.25
2017-07-10T07:06:11.473Z,1003.24
2017-07-10T07:07:21.994Z,1003.25
2017-07-10T07:08:31.971Z,1003.24
2017-07-10T07:09:41.947Z,1003.2
2017-07-10T07:10:52.208Z,1003.21
2017-07-10T07:12:02.491Z,1003.23
2017-07-10T07:13:13.024Z,1003.17
2017-07-10T07:14:23.290Z,1003.13
2017-07-10T07:15:33.270Z,1003.14
2017-07-10T07:16:43.542Z,1003.15
2017-07-10T07:17:54.039Z,1003.11
2017-07-10T07:19:04.250Z,1003.11
2017-07-10T07:20:14.554Z,1003.05
2017-07-10T07:21:24.843Z,1003.09
2017-07-10T07:22:34.792Z,1003.08
2017-07-10T07:23:44.725Z,1003.07
2017-07-10T07:24:54.922Z,1003.08
2017-07-10T07:26:05.208Z,1003.09
2017-07-10T07:27:15.489Z,1003.04
2017-07-10T07:28:25.779Z,1003.01
2017-07-10T07:29:36.055Z,1002.99
2017-07-10T07:30:46.580Z,1003
2017-07-10T07:31:56.869Z,1002.97
2017-07-10T07:33:06.834Z,1002.98
2017-07-10T07:34:17.097Z,1002.99
2017-07-10T07:35:27.056Z,1002.98
2017-07-10T07:36:37.583Z,1002.99
2017-07-10T07:37:47.235Z,1003
2017-07-10T07:38:57.192Z,1003.01
2017-07-10T07:40:07.165Z,1003
2017-07-10T07:41:17.440Z,1003.04
2017-07-10T07:42:27.969Z,1003.11
2017-07-10T07:43:38.276Z,1003.07
2017-07-10T07:44:48.557Z,1003.07
2017-07-10T07:45:58.855Z,1003.08
2017-07-10T07:47:09.140Z,1003.09
2017-07-10T07:48:19.356Z,1003.02
2017-07-10T07:49:29.642Z,1002.99
2017-07-10T07:50:39.920Z,1002.98
2017-07-10T07:51:50.189Z,1002.96
2017-07-10T07:52:59.835Z,1002.9
2017-07-10T07:54:10.357Z,1002.82
2017-07-10T07:55:20.632Z,1002.85
2017-07-10T07:56:30.913Z,1002.87
2017-07-10T07:57:40.562Z,1002.85
2017-07-10T07:58:50.516Z,1002.87
2017-07-10T08:00:01.053Z,1002.95
2017-07-10T08:01:11.369Z,1002.98
2017-07-10T08:02:21.654Z,1003.05
2017-07-10T08:03:31.923Z,1003.02
2017-07-10T08:04:42.238Z,1003.09
2017-07-10T08:05:52.744Z,1003.08
2017-07-10T08:07:03.041Z,1003.08
2017-07-10T08:08:13.330Z,1003.09
2017-07-10T08:09:23.606Z,1003.14
2017-07-10T08:10:33.905Z,1003.21
2017-07-10T08:11:44.429Z,1003.28
2017-07-10T08:12:54.720Z,1003.34
2017-07-10T08:14:05.027Z,1003.43
2017-07-10T08:15:15.308Z,1003.52
2017-07-10T08:16:25.269Z,1003.62
2017-07-10T08:17:35.549Z,1003.67
2017-07-10T08:18:46.064Z,1003.78
2017-07-10T08:19:56.345Z,1003.86
2017-07-10T08:21:06.620Z,1003.95
2017-07-10T08:22:16.906Z,1004.02
2017-07-10T08:23:27.162Z,1004.07
2017-07-10T08:24:37.435Z,1004.1
2017-07-10T08:25:47.406Z,1004.14
2017-07-10T08:26:57.685Z,1004.12
2017-07-10T08:28:07.644Z,1004.1
2017-07-10T08:29:18.181Z,1004.18
2017-07-10T08:30:28.154Z,1004.25
2017-07-10T08:31:38.118Z,1004.28
2017-07-10T08:32:48.299Z,1004.29
2017-07-10T08:33:58.585Z,1004.24
2017-07-10T08:35:08.815Z,1004.27
2017-07-10T08:36:19.096Z,1004.33
2017-07-10T08:37:29.044Z,1004.33
2017-07-10T08:38:39.329Z,1004.39
2017-07-10T08:39:49.609Z,1004.4
2017-07-10T08:40:59.808Z,1004.4
2017-07-10T08:42:09.762Z,1004.35
2017-07-10T08:43:20.039Z,1004.29
2017-07-10T08:44:30.313Z,1004.26
2017-07-10T08:45:39.956Z,1004.16
2017-07-10T08:46:50.503Z,1004.15
2017-07-10T08:48:00.461Z,1004.09
2017-07-10T08:49:10.736Z,1004.12
2017-07-10T08:50:21.016Z,1004.1
2017-07-10T08:51:30.978Z,1004.15
2017-07-10T08:52:41.549Z,1004.23
2017-07-10T08:53:51.828Z,1004.24
2017-07-10T08:55:02.115Z,1004.24
2017-07-10T08:56:12.399Z,1004.2
2017-07-10T08:57:22.369Z,1004.18
2017-07-10T08:58:32.916Z,1003.99
2017-07-10T08:59:42.857Z,1003.87
2017-07-10T09:00:53.451Z,1003.71
2017-07-10T09:02:03.538Z,1003.68
2017-07-10T09:03:13.690Z,1003.64
2017-07-10T09:04:24.073Z,1003.54
2017-07-10T09:05:34.358Z,1003.46
2017-07-10T09:06:44.621Z,1003.41
2017-07-10T09:07:54.902Z,1003.37
2017-07-10T09:09:05.403Z,1003.27
2017-07-10T09:10:15.949Z,1003.29
2017-07-10T09:11:26.244Z,1003.22
2017-07-10T09:12:36.229Z,1003.2
2017-07-10T09:13:46.519Z,1003.2
2017-07-10T09:14:56.803Z,1003.15
2017-07-10T09:16:07.399Z,1003.17
2017-07-10T09:17:17.672Z,1003.2
2017-07-10T09:18:27.953Z,1003.25
2017-07-10T09:19:38.223Z,1003.29
2017-07-10T09:20:48.485Z,1003.3
2017-07-10T09:21:58.713Z,1003.31
2017-07-10T09:23:08.998Z,1003.27
2017-07-10T09:24:19.352Z,1003.27
2017-07-10T09:25:29.636Z,1003.28
2017-07-10T09:26:39.606Z,1003.25
2017-07-10T09:27:50.119Z,1003.22
2017-07-10T09:29:00.058Z,1003.16
2017-07-10T09:30:10.342Z,1003.06
2017-07-10T09:31:20.632Z,1003
2017-07-10T09:32:30.600Z,1003
2017-07-10T09:33:41.185Z,1002.96
2017-07-10T09:34:51.482Z,1002.88
2017-07-10T09:36:01.767Z,1002.82
2017-07-10T09:37:11.413Z,1002.77
2017-07-10T09:38:21.664Z,1002.66
2017-07-10T09:39:31.557Z,1002.61
2017-07-10T09:40:41.868Z,1002.59
2017-07-10T09:41:52.148Z,1002.59
2017-07-10T09:43:02.439Z,1002.64
2017-07-10T09:44:12.738Z,1002.71
2017-07-10T09:45:23.286Z,1002.75
2017-07-10T09:46:33.575Z,1002.76
2017-07-10T09:47:43.544Z,1002.8
2017-07-10T09:48:53.840Z,1002.82
2017-07-10T09:50:04.107Z,1002.88
2017-07-10T09:51:14.635Z,1002.93
2017-07-10T09:52:24.612Z,1002.96
2017-07-10T09:53:34.895Z,1002.9
2017-07-10T09:54:45.185Z,1002.84
2017-07-10T09:55:55.470Z,1002.9
2017-07-10T09:57:06.005Z,1002.83
2017-07-10T09:58:16.288Z,1002.85
2017-07-10T09:59:26.601Z,1002.84
2017-07-10T10:00:36.890Z,1002.79
2017-07-10T10:01:46.852Z,1002.78
2017-07-10T10:02:57.393Z,1002.72
2017-07-10T10:04:07.352Z,1002.66
2017-07-10T10:05:17.633Z,1002.62
2017-07-10T10:06:27.579Z,1002.52
2017-07-10T10:07:37.565Z,1002.47
2017-07-10T10:08:48.166Z,1002.37
2017-07-10T10:09:58.446Z,1002.38
2017-07-10T10:11:08.711Z,1002.35
2017-07-10T10:12:18.671Z,1002.4
2017-07-10T10:13:28.955Z,1002.37
2017-07-10T10:14:39.504Z,1002.39
2017-07-10T10:15:49.784Z,1002.33
2017-07-10T10:16:59.435Z,1002.32
2017-07-10T10:18:09.093Z,1002.31
2017-07-10T10:19:18.747Z,1002.23
2017-07-10T10:20:29.257Z,1002.22
2017-07-10T10:21:39.523Z,1002.14
2017-07-10T10:22:49.491Z,1002.1
2017-07-10T10:23:59.777Z,1002.03
2017-07-10T10:25:09.419Z,1002.05
2017-07-10T10:26:19.986Z,1001.95
2017-07-10T10:27:30.266Z,1001.97
2017-07-10T10:28:40.245Z,1002
2017-07-10T10:29:50.529Z,1002.03
2017-07-10T10:31:00.812Z,1002.06
2017-07-10T10:32:11.351Z,1002.05
2017-07-10T10:33:21.614Z,1002.07
2017-07-10T10:34:31.901Z,1002.06
2017-07-10T10:35:42.186Z,1002.07
2017-07-10T10:36:52.466Z,1002.13
2017-07-10T10:38:02.690Z,1002.13
2017-07-10T10:39:12.670Z,1002.17
2017-07-10T10:40:22.969Z,1002.18
2017-07-10T10:41:33.241Z,1002.13
2017-07-10T10:42:43.514Z,1002.11
2017-07-10T10:43:54.035Z,1002.08
2017-07-10T10:45:04.315Z,1002.07
2017-07-10T10:46:14.670Z,1002.09
2017-07-10T10:47:24.947Z,1002.07
2017-07-10T10:48:35.229Z,1002.09
2017-07-10T10:49:45.752Z,1002.06
2017-07-10T10:50:56.035Z,1002.04
2017-07-10T10:52:06.329Z,1002.08
2017-07-10T10:53:16.600Z,1002.09
2017-07-10T10:54:26.882Z,1002.11
2017-07-10T10:55:37.413Z,1002.09
2017-07-10T10:56:47.689Z,1002.11
2017-07-10T10:57:57.989Z,1002.15
2017-07-10T10:59:07.956Z,1002.14
2017-07-10T11:00:18.250Z,1002.18
2017-07-10T11:01:28.805Z,1002.14
2017-07-10T11:02:39.075Z,1002.13
2017-07-10T11:03:49.340Z,1002.16
2017-07-10T11:04:59.904Z,1002.17
2017-07-10T11:06:10.202Z,1002.17
2017-07-10T11:07:20.760Z,1002.2
2017-07-10T11:08:31.059Z,1002.2
2017-07-10T11:09:41.350Z,1002.22
2017-07-10T11:10:51.625Z,1002.22
2017-07-10T11:12:01.609Z,1002.21
2017-07-10T11:13:12.163Z,1002.29
2017-07-10T11:14:22.123Z,1002.26
2017-07-10T11:15:32.083Z,1002.3
2017-07-10T11:16:42.359Z,1002.3
2017-07-10T11:17:52.661Z,1002.29
2017-07-10T11:19:03.210Z,1002.31
2017-07-10T11:20:13.181Z,1002.34
2017-07-10T11:21:23.481Z,1002.37
2017-07-10T11:22:33.514Z,1002.4
2017-07-10T11:23:43.813Z,1002.42
2017-07-10T11:24:54.337Z,1002.47
2017-07-10T11:26:04.287Z,1002.47
2017-07-10T11:27:13.969Z,1002.5
2017-07-10T11:28:23.934Z,1002.49
2017-07-10T11:29:34.224Z,1002.48
2017-07-10T11:30:44.777Z,1002.48
2017-07-10T11:31:54.805Z,1002.45
2017-07-10T11:33:04.734Z,1002.42
2017-07-10T11:34:15.033Z,1002.4
2017-07-10T11:35:25.012Z,1002.41
2017-07-10T11:36:35.607Z,1002.42
2017-07-10T11:37:45.897Z,1002.45
2017-07-10T11:38:56.170Z,1002.47
2017-07-10T11:40:06.158Z,1002.46
2017-07-10T11:41:16.441Z,1002.46
2017-07-10T11:42:26.981Z,1002.42
2017-07-10T11:43:36.961Z,1002.42
2017-07-10T11:44:47.234Z,1002.4
2017-07-10T11:45:57.206Z,1002.42
2017-07-10T11:47:07.484Z,1002.43
2017-07-10T11:48:18.029Z,1002.4
2017-07-10T11:49:27.999Z,1002.37
2017-07-10T11:50:38.314Z,1002.38
2017-07-10T11:51:48.595Z,1002.37
2017-07-10T11:52:58.883Z,1002.36
2017-07-10T11:54:09.186Z,1002.36
2017-07-10T11:55:19.463Z,1002.35
2017-07-10T11:56:29.738Z,1002.31
2017-07-10T11:57:40.017Z,1002.35
2017-07-10T11:58:50.315Z,1002.36
2017-07-10T12:00:00.857Z,1002.34
2017-07-10T12:01:11.165Z,1002.31
2017-07-10T12:02:21.448Z,1002.31
2017-07-10T12:03:31.724Z,1002.28
2017-07-10T12:04:42.006Z,1002.27
2017-07-10T12:05:52.558Z,1002.33
2017-07-10T12:07:02.852Z,1002.39
2017-07-10T12:08:12.826Z,1002.36
2017-07-10T12:09:23.104Z,1002.33
2017-07-10T12:10:33.417Z,1002.29
2017-07-10T12:11:43.952Z,1002.33
2017-07-10T12:12:53.912Z,1002.28
2017-07-10T12:14:03.893Z,1002.3
2017-07-10T12:15:14.171Z,1002.31
2017-07-10T12:16:24.111Z,1002.26
2017-07-10T12:17:34.657Z,1002.3
2017-07-10T12:18:44.938Z,1002.28
2017-07-10T12:19:54.903Z,1002.28
2017-07-10T12:21:04.923Z,1002.2
2017-07-10T12:22:14.898Z,1002.25
2017-07-10T12:23:25.426Z,1002.24
2017-07-10T12:24:35.687Z,1002.24
2017-07-10T12:25:45.647Z,1002.25
2017-07-10T12:26:55.933Z,1002.28
2017-07-10T12:28:06.210Z,1002.22
2017-07-10T12:29:16.796Z,1002.21
2017-07-10T12:30:26.790Z,1002.21
2017-07-10T12:31:36.757Z,1002.17
2017-07-10T12:32:46.723Z,1002.25
2017-07-10T12:33:56.674Z,1002.13
2017-07-10T12:35:07.264Z,1002.13
2017-07-10T12:36:17.226Z,1002.12
2017-07-10T12:37:27.513Z,1002.11
2017-07-10T12:38:37.471Z,1002.08
2017-07-10T12:39:47.751Z,1002.1
2017-07-10T12:40:57.657Z,1002.07
2017-07-10T12:42:07.946Z,1002.06
2017-07-10T12:43:18.225Z,1002.04
2017-07-10T12:44:28.193Z,1002.03
2017-07-10T12:45:38.186Z,1002.06
2017-07-10T12:46:48.708Z,1002.07
2017-07-10T12:47:58.979Z,1002.05
2017-07-10T12:49:09.316Z,1002.03
2017-07-10T12:50:19.280Z,1002.07
2017-07-10T12:51:29.262Z,1002.08
2017-07-10T12:52:39.517Z,1002.03
2017-07-10T12:53:49.795Z,1002.08
2017-07-10T12:55:00.087Z,1002.1
2017-07-10T12:56:10.049Z,1002.06
2017-07-10T12:57:20.346Z,1002.05
2017-07-10T12:58:30.870Z,1002.01
2017-07-10T12:59:41.131Z,1002.03
2017-07-10T13:00:51.404Z,1002.02
2017-07-10T13:02:01.373Z,1002.03
2017-07-10T13:03:11.719Z,1002
2017-07-10T13:04:22.241Z,1002.01
2017-07-10T13:05:32.207Z,1001.99
2017-07-10T13:06:42.507Z,1002.03
2017-07-10T13:07:52.808Z,1002.06
2017-07-10T13:09:02.773Z,1002.04
2017-07-10T13:10:13.349Z,1002.02
2017-07-10T13:11:23.636Z,1002.03
2017-07-10T13:12:33.908Z,1002.09
2017-07-10T13:13:44.206Z,1002.05
2017-07-10T13:14:54.188Z,1002.03
2017-07-10T13:16:04.426Z,1002.03
2017-07-10T13:17:14.731Z,1002.03
2017-07-10T13:18:25.034Z,1002.01
2017-07-10T13:19:35.308Z,1002.02
2017-07-10T13:20:45.595Z,1002.05
2017-07-10T13:21:56.115Z,1002.02
2017-07-10T13:23:06.070Z,1002.04
2017-07-10T13:24:16.355Z,1002.02
2017-07-10T13:25:26.623Z,1002.01
2017-07-10T13:26:36.904Z,1002.02
2017-07-10T13:27:47.439Z,1002.03
2017-07-10T13:28:57.067Z,1002
2017-07-10T13:30:06.752Z,1001.98
2017-07-10T13:31:17.027Z,1002.01
2017-07-10T13:32:26.996Z,1001.99
2017-07-10T13:33:37.252Z,1002.05
2017-07-10T13:34:47.526Z,1002.1
2017-07-10T13:35:57.804Z,1002.09
2017-07-10T13:37:08.070Z,1002.1
2017-07-10T13:38:18.339Z,1002.1
2017-07-10T13:39:28.884Z,1002.04
2017-07-10T13:40:39.213Z,1002.03
2017-07-10T13:41:49.491Z,1002.05
2017-07-10T13:42:59.789Z,1002.05
2017-07-10T13:44:10.057Z,1001.99
2017-07-10T13:45:20.687Z,1002.05
2017-07-10T13:46:30.974Z,1002.02
2017-07-10T13:47:41.235Z,1002
2017-07-10T13:48:51.499Z,1001.98
2017-07-10T13:50:01.206Z,1001.98
2017-07-10T13:51:11.407Z,1001.91
2017-07-10T13:52:21.366Z,1001.87
2017-07-10T13:53:31.643Z,1001.89
2017-07-10T13:54:41.914Z,1001.91
2017-07-10T13:55:51.894Z,1001.85
2017-07-10T13:57:02.445Z,1001.81
2017-07-10T13:58:12.718Z,1001.82
2017-07-10T13:59:22.987Z,1001.76
2017-07-10T14:00:32.620Z,1001.77
2017-07-10T14:01:42.880Z,1001.73
2017-07-10T14:02:53.408Z,1001.79
2017-07-10T14:04:03.712Z,1001.75
2017-07-10T14:05:13.988Z,1001.72
2017-07-10T14:06:24.269Z,1001.66
2017-07-10T14:07:34.565Z,1001.66
2017-07-10T14:08:45.108Z,1001.66
2017-07-10T14:09:54.761Z,1001.65
2017-07-10T14:11:04.420Z,1001.67
2017-07-10T14:12:14.370Z,1001.66